createdAt,value
2019-05-02T00:01:40.907Z,99153.00
2019-05-02T00:04:46.105Z,99151.98
2019-05-02T00:07:53.919Z,99142.41
2019-05-02T00:10:59.355Z,99145.95
2019-05-02T00:14:05.086Z,99136.89
2019-05-02T00:17:10.769Z,99141.92
2019-05-02T00:20:21.278Z,99138.83
2019-05-02T00:23:28.122Z,99135.03
2019-05-02T00:26:31.386Z,99133.14
2019-05-02T00:29:36.649Z,99140.27
2019-05-02T00:32:41.913Z,99137.28
2019-05-02T00:35:47.631Z,99132.45
2019-05-02T00:38:52.901Z,99135.98
2019-05-02T00:41:58.122Z,99135.34
2019-05-02T00:45:03.246Z,99126.69
2019-05-02T00:48:23.136Z,99131.03
2019-05-02T00:51:28.153Z,99126.98
2019-05-02T00:54:33.396Z,99128.86
2019-05-02T00:57:38.563Z,99123.08
2019-05-02T01:01:01.522Z,99120.92
2019-05-02T01:04:16.140Z,99119.70
2019-05-02T01:07:25.498Z,99113.62
2019-05-02T01:10:28.214Z,99111.25
2019-05-02T01:13:33.385Z,99110.53
2019-05-02T01:16:38.548Z,99103.53
2019-05-02T01:19:47.419Z,99104.04
2019-05-02T01:22:52.236Z,99105.38
2019-05-02T01:25:57.536Z,99099.81
2019-05-02T01:29:09.040Z,99092.59
2019-05-02T01:32:30.116Z,99096.73
2019-05-02T01:35:50.096Z,99094.66
2019-05-02T01:38:55.275Z,99091.27
2019-05-02T01:42:04.141Z,99092.70
2019-05-02T01:45:11.261Z,99092.40
2019-05-02T01:48:14.189Z,99088.48
2019-05-02T01:51:19.378Z,99087.65
2019-05-02T01:54:24.567Z,99082.41
2019-05-02T01:57:29.768Z,99081.48
2019-05-02T02:00:34.955Z,99079.52
2019-05-02T02:03:40.439Z,99080.77
2019-05-02T02:06:46.999Z,99075.51
2019-05-02T02:09:52.150Z,99076.01
2019-05-02T02:13:04.695Z,99076.84
2019-05-02T02:16:05.840Z,99070.05
2019-05-02T02:19:17.228Z,99071.69
2019-05-02T02:22:39.205Z,99074.80
2019-05-02T02:25:50.920Z,99075.80
2019-05-02T02:28:56.086Z,99075.83
2019-05-02T02:32:02.352Z,99077.68
2019-05-02T02:35:09.928Z,99075.72
2019-05-02T02:38:14.690Z,99079.02
2019-05-02T02:41:19.861Z,99069.54
2019-05-02T02:44:42.712Z,99071.81
2019-05-02T02:47:52.964Z,99072.28
2019-05-02T02:50:54.897Z,99074.80
2019-05-02T02:54:04.043Z,99073.23
2019-05-02T02:57:19.959Z,99068.17
2019-05-02T03:00:17.043Z,99057.95
2019-05-02T03:03:27.758Z,99063.22
2019-05-02T03:06:29.361Z,99055.48
2019-05-02T03:09:34.498Z,99054.59
2019-05-02T03:12:57.661Z,99055.41
2019-05-02T03:16:07.184Z,99055.08
2019-05-02T03:19:14.865Z,99046.33
2019-05-02T03:22:17.519Z,99047.98
2019-05-02T03:25:26.917Z,99049.56
2019-05-02T03:28:30.016Z,99045.97
2019-05-02T03:31:35.158Z,99048.22
2019-05-02T03:34:53.687Z,99041.64
2019-05-02T03:37:51.340Z,99042.53
2019-05-02T03:40:55.075Z,99041.98
2019-05-02T03:44:10.601Z,99046.22
2019-05-02T03:47:07.074Z,99045.67
2019-05-02T03:50:12.483Z,99046.49
2019-05-02T03:53:24.941Z,99047.91
2019-05-02T03:56:24.738Z,99048.72
2019-05-02T03:59:38.949Z,99045.67
2019-05-02T04:02:38.130Z,99049.24
2019-05-02T04:05:43.378Z,99047.80
2019-05-02T04:08:58.848Z,99048.72
2019-05-02T04:11:56.055Z,99057.78
2019-05-02T04:15:01.286Z,99056.16
2019-05-02T04:18:08.417Z,99056.89
2019-05-02T04:21:14.072Z,99056.51
2019-05-02T04:24:19.803Z,99051.89
2019-05-02T04:27:27.962Z,99058.41
2019-05-02T04:30:32.855Z,99053.05
2019-05-02T04:33:38.004Z,99052.84
2019-05-02T04:36:46.305Z,99058.45
2019-05-02T04:39:53.654Z,99062.02
2019-05-02T04:43:01.922Z,99066.16
2019-05-02T04:46:12.090Z,99062.98
2019-05-02T04:49:11.693Z,99061.12
2019-05-02T04:52:18.231Z,99059.00
2019-05-02T04:55:30.241Z,99063.13
2019-05-02T04:58:34.804Z,99064.66
2019-05-02T05:01:43.234Z,99063.98
2019-05-02T05:04:46.988Z,99065.42
2019-05-02T05:07:51.201Z,99061.89
2019-05-02T05:10:57.363Z,99061.05
2019-05-02T05:14:02.645Z,99062.87
2019-05-02T05:17:08.070Z,99069.18
2019-05-02T05:20:15.700Z,99072.19
2019-05-02T05:23:38.293Z,99063.46
2019-05-02T05:26:44.848Z,99070.15
2019-05-02T05:29:53.448Z,99077.55
2019-05-02T05:32:58.324Z,99069.26
2019-05-02T05:36:03.676Z,99062.73
2019-05-02T05:39:11.677Z,99062.14
2019-05-02T05:42:17.843Z,99061.32
2019-05-02T05:45:22.724Z,99068.02
2019-05-02T05:48:32.116Z,99072.77
2019-05-02T05:51:34.665Z,99066.14
2019-05-02T05:54:41.991Z,99067.73
2019-05-02T05:57:47.622Z,99070.30
2019-05-02T06:00:55.640Z,99072.48
2019-05-02T06:04:00.552Z,99065.03
2019-05-02T06:07:07.276Z,99061.46
2019-05-02T06:10:12.698Z,99068.06
2019-05-02T06:13:18.025Z,99063.37
2019-05-02T06:16:23.202Z,99062.11
2019-05-02T06:19:28.474Z,99065.69
2019-05-02T06:22:33.646Z,99063.14
2019-05-02T06:25:42.203Z,99064.05
2019-05-02T06:28:45.611Z,99068.88
2019-05-02T06:31:50.886Z,99065.13
2019-05-02T06:34:56.037Z,99059.08
2019-05-02T06:38:01.338Z,99065.06
2019-05-02T06:41:06.660Z,99059.42
2019-05-02T06:44:11.773Z,99047.44
2019-05-02T06:47:16.882Z,99052.30
2019-05-02T06:50:24.670Z,99052.77
2019-05-02T06:53:28.884Z,99050.30
2019-05-02T06:56:34.121Z,99048.58
2019-05-02T06:59:39.339Z,99053.94
2019-05-02T07:02:44.751Z,99046.20
2019-05-02T07:05:49.947Z,99051.01
2019-05-02T07:08:55.247Z,99045.05
2019-05-02T07:12:01.653Z,99044.69
2019-05-02T07:15:10.974Z,99048.75
2019-05-02T07:18:17.410Z,99045.86
2019-05-02T07:21:23.542Z,99040.39
2019-05-02T07:24:30.566Z,99035.51
2019-05-02T07:27:35.916Z,99035.88
2019-05-02T07:30:41.161Z,99031.61
2019-05-02T07:33:46.334Z,99025.04
2019-05-02T07:36:51.582Z,99029.31
2019-05-02T07:39:56.675Z,99022.35
2019-05-02T07:43:01.911Z,99023.74
2019-05-02T07:46:07.041Z,99021.83
2019-05-02T07:49:12.255Z,99027.26
2019-05-02T07:52:17.383Z,99022.22
2019-05-02T07:55:22.650Z,99021.98
2019-05-02T07:58:28.861Z,99021.77
2019-05-02T08:01:33.974Z,99023.17
2019-05-02T08:04:43.664Z,99020.63
2019-05-02T08:07:46.283Z,99025.14
2019-05-02T08:10:53.812Z,99024.61
2019-05-02T08:14:00.473Z,99014.86
2019-05-02T08:17:10.461Z,99014.42
2019-05-02T08:20:18.446Z,99010.84
2019-05-02T08:23:25.529Z,99014.84
2019-05-02T08:26:29.969Z,99016.95
2019-05-02T08:29:36.204Z,99021.28
2019-05-02T08:32:41.400Z,99016.50
2019-05-02T08:35:46.640Z,99020.20
2019-05-02T08:38:53.578Z,99015.85
2019-05-02T08:41:58.831Z,99015.34
2019-05-02T08:45:05.594Z,99024.03
2019-05-02T08:48:11.115Z,99021.97
2019-05-02T08:51:16.268Z,99012.50
2019-05-02T08:54:21.433Z,99011.51
2019-05-02T08:57:29.969Z,99001.59
2019-05-02T09:00:37.428Z,99006.53
2019-05-02T09:03:54.803Z,99009.62
2019-05-02T09:06:47.415Z,99005.61
2019-05-02T09:09:55.408Z,99005.38
2019-05-02T09:12:59.481Z,99007.70
2019-05-02T09:16:05.963Z,98992.17
2019-05-02T09:19:15.214Z,98985.67
2019-05-02T09:22:18.201Z,98995.39
2019-05-02T09:25:23.416Z,98992.39
2019-05-02T09:28:28.650Z,98979.33
2019-05-02T09:31:36.817Z,98978.77
2019-05-02T09:34:42.360Z,98988.61
2019-05-02T09:37:47.621Z,98987.81
2019-05-02T09:40:56.166Z,98982.09
2019-05-02T09:43:59.717Z,98984.09
2019-05-02T09:47:05.088Z,98970.67
2019-05-02T09:50:13.953Z,98971.06
2019-05-02T09:53:20.867Z,98963.89
2019-05-02T09:56:25.987Z,98968.02
2019-05-02T09:59:33.257Z,98955.17
2019-05-02T10:02:41.758Z,98947.80
2019-05-02T10:05:46.439Z,98947.12
2019-05-02T10:08:52.156Z,98947.12
2019-05-02T10:11:57.314Z,98952.33
2019-05-02T10:15:02.512Z,98942.77
2019-05-02T10:18:12.012Z,98935.66
2019-05-02T10:21:17.193Z,98935.66
2019-05-02T10:24:22.529Z,98936.87
2019-05-02T10:27:27.683Z,98932.15
2019-05-02T10:30:36.062Z,98934.40
2019-05-02T10:33:42.042Z,98931.55
2019-05-02T10:36:54.197Z,98926.00
2019-05-02T10:39:55.868Z,98922.16
2019-05-02T10:43:02.893Z,98913.56
2019-05-02T10:46:27.763Z,98913.52
2019-05-02T10:49:46.987Z,98916.91
2019-05-02T10:52:52.717Z,98903.94
2019-05-02T10:55:58.073Z,98905.05
2019-05-02T10:59:03.282Z,98895.86
2019-05-02T11:02:27.526Z,98891.87
2019-05-02T11:05:33.686Z,98894.47
2019-05-02T11:08:44.025Z,98898.10
2019-05-02T11:11:45.862Z,98890.43
2019-05-02T11:14:56.454Z,98881.86
2019-05-02T11:18:02.321Z,98875.20
2019-05-02T11:21:08.381Z,98875.84
2019-05-02T11:24:14.324Z,98880.83
2019-05-02T11:27:19.634Z,98865.86
2019-05-02T11:30:26.635Z,98865.87
2019-05-02T11:33:32.538Z,98861.81
2019-05-02T11:36:37.921Z,98872.10
2019-05-02T11:39:50.196Z,98870.69
2019-05-02T11:42:52.065Z,98867.77
2019-05-02T11:46:06.030Z,98870.89
2019-05-02T11:49:04.289Z,98858.80
2019-05-02T11:52:09.544Z,98858.45
2019-05-02T11:55:19.002Z,98849.72
2019-05-02T11:58:22.969Z,98856.27
2019-05-02T12:01:37.313Z,98850.43
2019-05-02T12:04:36.267Z,98843.79
2019-05-02T12:07:41.834Z,98845.19
2019-05-02T12:10:47.127Z,98857.92
2019-05-02T12:13:56.819Z,98851.06
2019-05-02T12:16:59.321Z,98855.47
2019-05-02T12:20:04.678Z,98844.11
2019-05-02T12:23:09.999Z,98854.88
2019-05-02T12:26:15.262Z,98842.19
2019-05-02T12:29:21.835Z,98840.91
2019-05-02T12:32:45.412Z,98842.92
2019-05-02T12:35:52.514Z,98842.64
2019-05-02T12:38:57.487Z,98830.43
2019-05-02T12:42:03.518Z,98832.12
2019-05-02T12:45:09.130Z,98838.67
2019-05-02T12:48:14.267Z,98830.93
2019-05-02T12:51:19.642Z,98838.09
2019-05-02T12:54:25.900Z,98823.92
2019-05-02T12:57:32.121Z,98825.98
2019-05-02T13:00:37.410Z,98819.89
2019-05-02T13:03:47.163Z,98830.70
2019-05-02T13:06:53.064Z,98819.73
2019-05-02T13:09:58.397Z,98815.33
2019-05-02T13:13:05.307Z,98818.64
2019-05-02T13:16:12.200Z,98814.50
2019-05-02T13:19:18.124Z,98815.91
2019-05-02T13:22:47.999Z,98805.84
2019-05-02T13:25:53.179Z,98801.38
2019-05-02T13:28:58.400Z,98794.59
2019-05-02T13:32:18.929Z,98791.73
2019-05-02T13:35:49.195Z,98805.50
2019-05-02T13:38:54.402Z,98804.37
2019-05-02T13:42:01.635Z,98796.16
2019-05-02T13:45:26.585Z,98790.59
2019-05-02T13:48:32.390Z,98792.91
2019-05-02T13:51:38.652Z,98781.47
2019-05-02T13:54:43.805Z,98776.20
2019-05-02T13:57:49.057Z,98776.43
2019-05-02T14:00:54.262Z,98780.30
2019-05-02T14:04:03.577Z,98772.60
2019-05-02T14:07:12.266Z,98771.80
2019-05-02T14:10:23.791Z,98777.70
2019-05-02T14:13:29.067Z,98772.33
2019-05-02T14:16:34.283Z,98756.00
2019-05-02T14:19:39.550Z,98754.86
2019-05-02T14:22:44.698Z,98759.77
2019-05-02T14:25:51.935Z,98763.00
2019-05-02T14:28:56.677Z,98757.59
2019-05-02T14:32:03.077Z,98740.14
2019-05-02T14:35:24.003Z,98740.39
2019-05-02T14:38:26.641Z,98751.73
2019-05-02T14:41:40.900Z,98751.87
2019-05-02T14:45:01.494Z,98744.16
2019-05-02T14:47:49.751Z,98733.01
2019-05-02T14:50:52.467Z,98729.99
2019-05-02T14:54:03.650Z,98724.41
2019-05-02T14:57:11.957Z,98722.59
2019-05-02T15:00:17.572Z,98719.95
2019-05-02T15:03:24.523Z,98714.99
2019-05-02T15:06:33.011Z,98711.41
2019-05-02T15:09:36.591Z,98715.84
2019-05-02T15:12:42.855Z,98709.45
2019-05-02T15:15:47.976Z,98705.52
2019-05-02T15:18:57.054Z,98700.35
2019-05-02T15:22:02.036Z,98701.57
2019-05-02T15:25:12.251Z,98694.09
2019-05-02T15:28:19.373Z,98696.27
2019-05-02T15:31:32.403Z,98687.90
2019-05-02T15:35:02.441Z,98696.94
2019-05-02T15:38:07.903Z,98691.98
2019-05-02T15:41:15.363Z,98697.10
2019-05-02T15:44:23.571Z,98690.81
2019-05-02T15:47:26.805Z,98689.30
2019-05-02T15:50:32.619Z,98688.02
2019-05-02T15:54:05.999Z,98683.67
2019-05-02T15:57:05.861Z,98678.34
2019-05-02T16:00:15.519Z,98673.30
2019-05-02T16:03:22.029Z,98659.20
2019-05-02T16:06:33.185Z,98659.20
2019-05-02T16:09:34.055Z,98654.55
2019-05-02T16:12:41.788Z,98666.97
2019-05-02T16:15:47.079Z,98663.75
2019-05-02T16:18:52.770Z,98662.55
2019-05-02T16:22:15.232Z,98672.88
2019-05-02T16:25:24.459Z,98666.77
2019-05-02T16:28:27.519Z,98666.77
2019-05-02T16:31:34.465Z,98671.39
2019-05-02T16:34:54.642Z,98674.25
2019-05-02T16:38:01.391Z,98668.70
2019-05-02T16:41:09.719Z,98668.70
2019-05-02T16:44:14.634Z,98676.83
2019-05-02T16:47:21.840Z,98672.17
2019-05-02T16:50:27.611Z,98673.13
2019-05-02T16:53:33.732Z,98665.98
2019-05-02T16:56:42.304Z,98670.70
2019-05-02T16:59:46.505Z,98661.59
2019-05-02T17:02:51.736Z,98659.85
2019-05-02T17:05:57.000Z,98660.06
2019-05-02T17:09:17.828Z,98656.19
2019-05-02T17:12:23.022Z,98664.70
2019-05-02T17:15:35.148Z,98656.78
2019-05-02T17:18:39.043Z,98656.94
2019-05-02T17:21:53.066Z,98650.93
2019-05-02T17:24:52.617Z,98648.70
2019-05-02T17:28:02.394Z,98649.83
2019-05-02T17:31:05.025Z,98652.31
2019-05-02T17:34:13.390Z,98656.77
2019-05-02T17:37:17.295Z,98652.93
2019-05-02T17:40:26.079Z,98654.36
2019-05-02T17:43:29.455Z,98654.66
2019-05-02T17:46:36.587Z,98650.00
2019-05-02T17:49:42.342Z,98646.67
2019-05-02T17:52:51.706Z,98646.77
2019-05-02T17:55:58.702Z,98646.19
2019-05-02T17:59:03.997Z,98644.41
2019-05-02T18:02:12.451Z,98643.47
2019-05-02T18:05:16.431Z,98644.06
2019-05-02T18:08:21.924Z,98645.24
2019-05-02T18:11:29.594Z,98653.72
2019-05-02T18:14:34.292Z,98651.45
2019-05-02T18:17:39.519Z,98655.94
2019-05-02T18:20:46.556Z,98660.62
2019-05-02T18:23:52.113Z,98656.24
2019-05-02T18:26:57.459Z,98651.94
2019-05-02T18:30:02.772Z,98651.12
2019-05-02T18:33:09.573Z,98657.91
2019-05-02T18:36:17.282Z,98661.24
2019-05-02T18:39:22.235Z,98663.96
2019-05-02T18:42:27.514Z,98664.77
2019-05-02T18:45:32.818Z,98660.70
2019-05-02T18:48:42.082Z,98668.03
2019-05-02T18:51:48.327Z,98672.64
2019-05-02T18:54:52.006Z,98683.50
2019-05-02T18:58:02.464Z,98686.17
2019-05-02T19:01:08.605Z,98689.38
2019-05-02T19:04:13.214Z,98691.02
2019-05-02T19:07:29.897Z,98693.16
2019-05-02T19:10:25.668Z,98690.90
2019-05-02T19:13:32.701Z,98680.80
2019-05-02T19:16:37.965Z,98690.97
2019-05-02T19:19:43.196Z,98690.09
2019-05-02T19:22:52.895Z,98699.08
2019-05-02T19:25:55.582Z,98706.64
2019-05-02T19:29:21.516Z,98707.28
2019-05-02T19:32:28.367Z,98702.27
2019-05-02T19:35:37.610Z,98704.10
2019-05-02T19:38:42.702Z,98701.12
2019-05-02T19:41:47.697Z,98702.67
2019-05-02T19:44:52.893Z,98705.57
2019-05-02T19:47:58.194Z,98706.09
2019-05-02T19:51:04.506Z,98709.25
2019-05-02T19:54:09.707Z,98718.58
2019-05-02T19:57:17.154Z,98721.90
2019-05-02T20:00:21.837Z,98733.83
2019-05-02T20:03:27.109Z,98737.38
2019-05-02T20:06:32.606Z,98757.53
2019-05-02T20:09:38.154Z,98764.20
2019-05-02T20:12:48.194Z,98767.36
2019-05-02T20:16:02.635Z,98755.97
2019-05-02T20:19:06.843Z,98761.45
2019-05-02T20:22:15.213Z,98764.56
2019-05-02T20:25:20.414Z,98766.75
2019-05-02T20:28:25.821Z,98775.11
2019-05-02T20:31:32.180Z,98780.27
2019-05-02T20:34:37.583Z,98774.47
2019-05-02T20:37:42.898Z,98779.13
2019-05-02T20:40:48.075Z,98776.16
2019-05-02T20:43:53.334Z,98776.66
2019-05-02T20:46:58.460Z,98773.24
2019-05-02T20:50:05.914Z,98771.35
2019-05-02T20:53:12.750Z,98774.13
2019-05-02T20:56:17.479Z,98761.73
2019-05-02T20:59:23.866Z,98766.69
2019-05-02T21:02:29.076Z,98760.41
2019-05-02T21:05:53.293Z,98751.83
2019-05-02T21:09:14.655Z,98756.99
2019-05-02T21:12:19.945Z,98757.77
2019-05-02T21:15:25.108Z,98768.05
2019-05-02T21:18:30.307Z,98764.47
2019-05-02T21:21:36.290Z,98770.55
2019-05-02T21:24:42.055Z,98773.52
2019-05-02T21:27:48.539Z,98772.05
2019-05-02T21:30:55.105Z,98775.13
2019-05-02T21:34:02.438Z,98775.58
2019-05-02T21:37:07.391Z,98786.66
2019-05-02T21:40:12.743Z,98783.89
2019-05-02T21:43:18.040Z,98781.19
2019-05-02T21:46:24.264Z,98786.34
2019-05-02T21:49:57.827Z,98793.28
2019-05-02T21:53:22.267Z,98797.98
2019-05-02T21:56:43.391Z,98796.42
2019-05-02T21:59:48.535Z,98795.69
2019-05-02T22:02:53.844Z,98792.05
2019-05-02T22:05:59.071Z,98793.05
2019-05-02T22:09:06.576Z,98797.73
2019-05-02T22:12:13.152Z,98787.66
2019-05-02T22:15:18.405Z,98794.45
2019-05-02T22:18:23.702Z,98791.36
2019-05-02T22:21:28.931Z,98796.70
2019-05-02T22:24:34.083Z,98797.34
2019-05-02T22:27:39.403Z,98808.14
2019-05-02T22:30:44.473Z,98811.44
2019-05-02T22:33:52.793Z,98810.75
2019-05-02T22:36:57.990Z,98807.90
2019-05-02T22:40:07.190Z,98806.08
2019-05-02T22:43:13.046Z,98809.74
2019-05-02T22:46:37.163Z,98805.14
2019-05-02T22:49:42.464Z,98810.16
2019-05-02T22:52:49.365Z,98808.89
2019-05-02T22:55:54.606Z,98800.61
2019-05-02T22:58:59.731Z,98803.14
2019-05-02T23:02:04.913Z,98803.81
2019-05-02T23:05:12.293Z,98805.16
2019-05-02T23:08:17.073Z,98815.64
2019-05-02T23:11:24.502Z,98815.69
2019-05-02T23:14:29.084Z,98822.12
2019-05-02T23:17:34.204Z,98824.33
2019-05-02T23:20:39.401Z,98830.56
2019-05-02T23:23:44.694Z,98824.61
2019-05-02T23:26:59.474Z,98821.47
2019-05-02T23:30:05.390Z,98820.84
2019-05-02T23:33:10.551Z,98820.89
2019-05-02T23:36:15.741Z,98823.47
2019-05-02T23:39:20.967Z,98821.08
2019-05-02T23:42:26.278Z,98824.59
2019-05-02T23:45:31.694Z,98818.63
2019-05-02T23:48:37.059Z,98825.05
2019-05-02T23:51:42.821Z,98827.97
2019-05-02T23:54:52.114Z,98825.39
2019-05-02T23:57:55.047Z,98825.80
